Terminal Aerodrome Forecast
Issued by NWS Charleston, SC

Home | Current Version | Previous Version | Text Only | Print | Product List | Glossary On
Versions: 1 2 3 4 5 6 7 8 9 10 11 12 13 14 15 16 17 18 19 20 21 22
409
FTUS42 KCHS 070550 CCA
TAFSAV
TAF COR
KSAV 070550Z 0706/0806 01013G18KT 5SM RA BR OVC008
     FM071300 34016G23KT 6SM -RA BR SCT006 OVC010
     FM071700 32018G25KT P6SM SCT015 OVC035
     FM071900 31015G20KT P6SM SCT035
     FM072300 29007KT P6SM SKC=

USA.gov is the U.S. government's official web portal to all federal, state and local government web resources and services.